Ossineke, MI (49766)

4:26 AM EST on March 01, 2015 (GMT -0500)
Spruce (Buck Run) | Change Station
CLOSE
Current Station
Personal Weather Station
Location: Spruce, MI
Elevation: 827 ft
Nearby Weather Stations

Elev 827 ft 44.85 °N, 83.41 °W | Updated 11 seconds ago

Overcast
Overcast
13.1 °F
Feels Like 13 °F
N
0.0
Wind Variable Wind from WSW
Gusts 0.0 mph

Today
High -- | Low -- °F
--% Chance of Precip.
Yesterday
High -- | Low -- °F
Precip. -- in
7:12 AM 6:21 PM
Waxing Gibbous, 84% visible
Pressure 30.44 in
Visibility 10.0 miles
Clouds Overcast 9500 ft
Windchill 13 °F
Dew Point -6 °F
Humidity 41%
Rainfall 0.00 in
Snow Depth Not available.
UV 0.0 out of 12
Pollen .40 out of 12
Air Quality Not available.
Flu Activity Not available.
METAR KAPN 010854Z AUTO 19003KT 10SM OVC095 M13/M17 A3040 RMK AO2 SLP307 T11281172 58022

More Conditions Fewer Conditions

Pressure 30.44 in
Visibility 10.0 miles
Clouds Overcast 9500 ft
Windchill 13 °F
Dew Point -6 °F
Humidity 41%
Rainfall 0.00 in
Snow Depth Not available.
UV 0.0 out of 12
Pollen .40 out of 12
Air Quality Not available.
Flu Activity Not available.
METAR KAPN 010854Z AUTO 19003KT 10SM OVC095 M13/M17 A3040 RMK AO2 SLP307 T11281172 58022

More Conditions Fewer Conditions

Nowcast | as of 4:00 am EST on March 1, 2015

At 5 am...mostly cloudy. Temperature 10 above. Light winds. At 7 am...mostly cloudy. Temperature 10 above. Light winds. At 9 am...mostly cloudy. Temperature 14. Southwest winds 6 mph. At 11 am...mostly cloudy. Temperature 19. Southwest winds 6 mph.

×

10-Day Weather Forecast

Almanac

Astronomy

Mar. 01, 2015 Rise Set
Actual Time
Civil Twilight
Nautical Twilight
Astronomical Twilight
Moon
Length of Visible Light
Length of Day
Tomorrow will be .
, % of the Moon is Illuminated

Today's Extremes

State Highs State Lows

Community

WunderPhotos

Upload Photos

1,801,350 photos uploaded!

WunderBlogs® & News

Nearby

Air Quality

  Air Quality AQ Index Pollutant
Not available.

Snow Depth

Station Depth Elevation

Earthquake Activity

City Distance Mag. Time & Date
Minimum magnitude displayed is 2.5.

Coastal Water Temperatures

Place Temperature

Nearby Weather Stations